createdAt,value
2022-10-20T00:00:12.950Z,6.30
2022-10-20T00:02:41.784Z,6.30
2022-10-20T00:05:10.674Z,6.30
2022-10-20T00:07:39.511Z,6.30
2022-10-20T00:10:10.657Z,6.40
2022-10-20T00:12:40.352Z,6.30
2022-10-20T00:15:09.712Z,6.30
2022-10-20T00:17:38.443Z,6.40
2022-10-20T00:20:08.344Z,6.30
2022-10-20T00:22:37.335Z,6.40
2022-10-20T00:25:07.018Z,6.40
2022-10-20T00:27:37.139Z,6.40
2022-10-20T00:30:06.357Z,6.50
2022-10-20T00:32:35.264Z,6.40
2022-10-20T00:35:04.098Z,6.50
2022-10-20T00:37:32.740Z,6.50
2022-10-20T00:40:01.377Z,6.50
2022-10-20T00:42:32.129Z,6.50
2022-10-20T00:45:02.500Z,6.40
2022-10-20T00:47:39.050Z,6.40
2022-10-20T00:50:12.661Z,6.40
2022-10-20T00:52:42.093Z,6.40
2022-10-20T00:55:13.004Z,6.30
2022-10-20T00:57:43.388Z,6.30
2022-10-20T01:00:15.482Z,6.30
2022-10-20T01:02:44.474Z,6.20
2022-10-20T01:05:14.307Z,6.10
2022-10-20T01:07:42.971Z,6.10
2022-10-20T01:10:12.437Z,6.10
2022-10-20T01:12:49.059Z,6.00
2022-10-20T01:15:28.500Z,6.00
2022-10-20T01:18:11.274Z,6.00
2022-10-20T01:21:06.078Z,6.00
2022-10-20T01:24:12.821Z,5.90
2022-10-20T01:27:26.634Z,5.90
2022-10-20T01:30:02.772Z,5.90
2022-10-20T01:32:42.036Z,5.90
2022-10-20T01:35:15.115Z,5.90
2022-10-20T01:37:49.792Z,5.90
2022-10-20T01:40:25.288Z,5.90
2022-10-20T01:42:58.033Z,5.90
2022-10-20T01:45:30.443Z,5.90
2022-10-20T01:48:01.110Z,5.80
2022-10-20T01:50:30.739Z,5.80
2022-10-20T01:53:00.448Z,5.70
2022-10-20T01:55:29.081Z,5.70
2022-10-20T01:58:14.211Z,5.60
2022-10-20T02:00:43.910Z,5.60
2022-10-20T02:03:33.337Z,5.60
2022-10-20T02:06:12.760Z,5.50
2022-10-20T02:08:46.282Z,5.50
2022-10-20T02:11:23.785Z,5.50
2022-10-20T02:13:55.717Z,5.40
2022-10-20T02:16:29.631Z,5.40
2022-10-20T02:21:33.784Z,5.20
2022-10-20T02:24:05.842Z,5.20
2022-10-20T02:26:35.307Z,5.10
2022-10-20T02:29:15.032Z,5.10
2022-10-20T02:31:45.239Z,5.00
2022-10-20T02:34:14.693Z,4.90
2022-10-20T02:36:45.475Z,4.80
2022-10-20T02:39:14.230Z,4.70
2022-10-20T02:41:42.885Z,4.60
2022-10-20T02:44:12.931Z,4.60
2022-10-20T02:46:41.571Z,4.60
2022-10-20T02:49:11.198Z,4.50
2022-10-20T02:51:39.862Z,4.50
2022-10-20T02:54:08.580Z,4.40
2022-10-20T02:56:37.230Z,4.40
2022-10-20T02:59:05.829Z,4.40
2022-10-20T03:01:38.214Z,4.30
2022-10-20T03:04:07.000Z,4.30
2022-10-20T03:06:35.641Z,4.30
2022-10-20T03:09:04.464Z,4.30
2022-10-20T03:11:33.479Z,4.20
2022-10-20T03:14:02.290Z,4.20
2022-10-20T03:16:30.957Z,4.20
2022-10-20T03:19:05.200Z,4.20
2022-10-20T03:21:36.292Z,4.10
2022-10-20T03:24:05.350Z,4.10
2022-10-20T03:26:34.455Z,4.10
2022-10-20T03:29:03.230Z,4.20
2022-10-20T03:31:32.071Z,4.10
2022-10-20T03:34:02.248Z,4.00
2022-10-20T03:36:31.005Z,4.00
2022-10-20T03:38:59.723Z,3.90
2022-10-20T03:41:28.476Z,3.90
2022-10-20T03:43:57.172Z,3.90
2022-10-20T03:46:25.801Z,4.00
2022-10-20T03:48:56.479Z,3.90
2022-10-20T03:51:27.366Z,3.90
2022-10-20T03:53:56.004Z,3.90
2022-10-20T03:56:24.723Z,3.90
2022-10-20T03:58:54.558Z,3.80
2022-10-20T04:01:30.243Z,3.80
2022-10-20T04:03:59.043Z,3.70
2022-10-20T04:06:29.204Z,3.70
2022-10-20T04:08:57.937Z,3.60
2022-10-20T04:11:27.107Z,3.60
2022-10-20T04:13:55.841Z,3.60
2022-10-20T04:16:25.419Z,3.50
2022-10-20T04:18:54.457Z,3.50
2022-10-20T04:21:23.481Z,3.50
2022-10-20T04:23:53.681Z,3.40
2022-10-20T04:26:22.293Z,3.40
2022-10-20T04:28:51.119Z,3.40
2022-10-20T04:31:19.806Z,3.40
2022-10-20T04:33:48.551Z,3.40
2022-10-20T04:36:17.610Z,3.40
2022-10-20T04:38:46.620Z,3.30
2022-10-20T04:41:16.824Z,3.30
2022-10-20T04:43:45.612Z,3.40
2022-10-20T04:46:14.370Z,3.40
2022-10-20T04:48:44.505Z,3.40
2022-10-20T04:51:15.014Z,3.50
2022-10-20T04:53:44.185Z,3.40
2022-10-20T04:56:18.447Z,3.40
2022-10-20T04:58:50.914Z,3.40
2022-10-20T05:01:21.002Z,3.30
2022-10-20T05:03:49.803Z,3.20
2022-10-20T05:06:21.841Z,3.20
2022-10-20T05:08:53.193Z,3.10
2022-10-20T05:11:26.187Z,3.10
2022-10-20T05:13:56.713Z,3.10
2022-10-20T05:16:25.858Z,3.00
2022-10-20T05:18:56.175Z,3.00
2022-10-20T05:21:27.325Z,2.90
2022-10-20T05:24:00.259Z,2.90
2022-10-20T05:26:32.586Z,2.90
2022-10-20T05:29:04.145Z,2.90
2022-10-20T05:31:32.822Z,2.80
2022-10-20T05:34:01.571Z,2.90
2022-10-20T05:36:30.534Z,2.90
2022-10-20T05:38:59.442Z,2.90
2022-10-20T05:41:32.150Z,3.00
2022-10-20T05:44:08.631Z,3.00
2022-10-20T05:46:41.890Z,3.10
2022-10-20T05:49:15.725Z,3.10
2022-10-20T05:51:45.831Z,3.10
2022-10-20T05:54:15.375Z,3.20
2022-10-20T05:56:44.055Z,3.20
2022-10-20T05:59:14.860Z,3.30
2022-10-20T06:01:49.143Z,3.40
2022-10-20T06:04:20.014Z,3.40
2022-10-20T06:06:49.121Z,3.50
2022-10-20T06:09:18.888Z,3.60
2022-10-20T06:11:48.183Z,3.70
2022-10-20T06:14:19.350Z,3.80
2022-10-20T06:16:51.015Z,3.80
2022-10-20T06:19:19.754Z,3.90
2022-10-20T06:21:49.543Z,4.00
2022-10-20T06:24:18.804Z,4.10
2022-10-20T06:26:47.826Z,4.10
2022-10-20T06:29:25.252Z,4.10
2022-10-20T06:31:56.131Z,4.20
2022-10-20T06:34:26.753Z,4.20
2022-10-20T06:36:55.483Z,4.20
2022-10-20T06:39:25.668Z,4.30
2022-10-20T06:41:55.491Z,4.30
2022-10-20T06:44:27.962Z,4.40
2022-10-20T06:46:56.699Z,4.40
2022-10-20T06:49:25.510Z,4.50
2022-10-20T06:51:54.214Z,4.60
2022-10-20T06:54:22.941Z,4.60
2022-10-20T06:56:53.387Z,4.80
2022-10-20T06:59:24.240Z,4.90
2022-10-20T07:01:55.026Z,4.90
2022-10-20T07:04:24.180Z,5.00
2022-10-20T07:06:52.939Z,5.10
2022-10-20T07:09:21.921Z,5.20
2022-10-20T07:11:53.834Z,5.20
2022-10-20T07:14:22.972Z,5.30
2022-10-20T07:16:54.075Z,5.40
2022-10-20T07:19:22.935Z,5.50
2022-10-20T07:21:51.694Z,5.60
2022-10-20T07:24:20.285Z,5.60
2022-10-20T07:26:49.118Z,5.70
2022-10-20T07:29:17.814Z,5.70
2022-10-20T07:31:48.725Z,5.90
2022-10-20T07:34:26.221Z,6.00
2022-10-20T07:36:56.458Z,6.10
2022-10-20T07:39:27.426Z,6.20
2022-10-20T07:41:58.693Z,6.30
2022-10-20T07:44:29.861Z,6.40
2022-10-20T07:46:58.719Z,6.60
2022-10-20T07:49:46.141Z,6.70
2022-10-20T07:52:16.554Z,6.80
2022-10-20T07:54:45.664Z,7.00
2022-10-20T07:57:14.339Z,7.10
2022-10-20T07:59:43.370Z,7.20
2022-10-20T08:02:15.903Z,7.40
2022-10-20T08:04:46.145Z,7.50
2022-10-20T08:07:14.859Z,7.60
2022-10-20T08:12:17.603Z,8.00
2022-10-20T08:14:46.347Z,8.20
2022-10-20T08:17:15.115Z,8.10
2022-10-20T08:19:53.641Z,8.20
2022-10-20T08:22:22.291Z,8.30
2022-10-20T08:24:51.095Z,8.40
2022-10-20T08:27:19.893Z,8.40
2022-10-20T08:29:55.257Z,8.50
2022-10-20T08:32:38.168Z,8.70
2022-10-20T08:35:09.619Z,8.80
2022-10-20T08:37:38.646Z,8.90
2022-10-20T08:40:08.409Z,9.00
2022-10-20T08:42:44.470Z,8.90
2022-10-20T08:45:17.057Z,8.90
2022-10-20T08:47:47.536Z,8.80
2022-10-20T08:50:19.033Z,9.00
2022-10-20T08:52:53.260Z,9.00
2022-10-20T08:55:28.803Z,9.10
2022-10-20T08:58:02.516Z,9.10
2022-10-20T09:00:32.879Z,9.20
2022-10-20T09:03:11.851Z,9.30
2022-10-20T09:05:44.223Z,9.30
2022-10-20T09:08:12.951Z,9.40
2022-10-20T09:10:45.957Z,9.50
2022-10-20T09:13:23.664Z,9.60
2022-10-20T09:15:55.345Z,9.70
2022-10-20T09:18:27.288Z,9.70
2022-10-20T09:21:00.051Z,9.80
2022-10-20T09:23:41.055Z,9.80
2022-10-20T09:26:30.451Z,10.00
2022-10-20T09:29:13.338Z,10.10
2022-10-20T09:31:45.259Z,10.10
2022-10-20T09:34:25.450Z,10.30
2022-10-20T09:37:00.659Z,10.50
2022-10-20T09:39:33.686Z,10.70
2022-10-20T09:42:05.617Z,11.00
2022-10-20T09:44:40.480Z,10.90
2022-10-20T09:47:14.918Z,11.10
2022-10-20T09:49:46.213Z,11.10
2022-10-20T09:52:24.804Z,11.10
2022-10-20T09:54:59.830Z,11.20
2022-10-20T09:57:29.074Z,11.30
2022-10-20T10:00:01.421Z,11.20
2022-10-20T10:02:37.813Z,11.20
2022-10-20T10:05:20.273Z,11.20
2022-10-20T10:08:00.986Z,11.20
2022-10-20T10:10:31.706Z,11.30
2022-10-20T10:13:04.077Z,11.30
2022-10-20T10:15:35.747Z,11.30
2022-10-20T10:18:14.881Z,11.30
2022-10-20T10:20:47.616Z,11.20
2022-10-20T10:23:22.308Z,11.30
2022-10-20T10:25:52.866Z,11.20
2022-10-20T10:28:41.482Z,11.30
2022-10-20T10:31:27.222Z,11.50
2022-10-20T10:34:03.981Z,11.50
2022-10-20T10:36:36.025Z,11.60
2022-10-20T10:39:12.530Z,11.60
2022-10-20T10:41:54.490Z,11.60
2022-10-20T10:44:35.902Z,11.70
2022-10-20T10:47:15.365Z,11.70
2022-10-20T10:49:58.825Z,11.70
2022-10-20T10:52:41.641Z,11.80
2022-10-20T10:55:43.719Z,12.00
2022-10-20T10:58:23.754Z,12.00
2022-10-20T11:01:00.772Z,12.10
2022-10-20T11:03:49.399Z,12.00
2022-10-20T11:06:25.716Z,11.90
2022-10-20T11:09:05.557Z,12.00
2022-10-20T11:11:48.629Z,12.00
2022-10-20T11:14:27.479Z,12.10
2022-10-20T11:17:09.297Z,12.10
2022-10-20T11:19:57.692Z,12.10
2022-10-20T11:22:39.900Z,12.20
2022-10-20T11:25:20.268Z,12.20
2022-10-20T11:27:51.561Z,12.20
2022-10-20T11:30:22.351Z,12.20
2022-10-20T11:32:55.071Z,12.20
2022-10-20T11:35:35.015Z,12.20
2022-10-20T11:38:16.399Z,12.30
2022-10-20T11:40:48.746Z,12.30
2022-10-20T11:43:27.221Z,12.20
2022-10-20T11:46:01.352Z,12.20
2022-10-20T11:48:37.535Z,12.30
2022-10-20T11:51:37.541Z,12.20
2022-10-20T11:54:32.376Z,12.30
2022-10-20T11:57:15.521Z,12.20
2022-10-20T12:00:12.944Z,12.30
2022-10-20T12:03:21.860Z,12.30
2022-10-20T12:06:11.888Z,12.50
2022-10-20T12:08:53.513Z,12.50
2022-10-20T12:11:31.235Z,12.50
2022-10-20T12:14:08.043Z,12.60
2022-10-20T12:17:16.268Z,12.60
2022-10-20T12:19:51.728Z,12.60
2022-10-20T12:22:41.895Z,12.50
2022-10-20T12:25:21.148Z,12.40
2022-10-20T12:28:28.373Z,12.40
2022-10-20T12:30:59.362Z,12.50
2022-10-20T12:33:43.312Z,12.50
2022-10-20T12:36:29.776Z,12.50
2022-10-20T12:39:17.095Z,12.40
2022-10-20T12:41:57.836Z,12.30
2022-10-20T12:44:28.999Z,12.30
2022-10-20T12:47:04.596Z,12.30
2022-10-20T12:49:36.078Z,12.20
2022-10-20T12:52:08.718Z,12.20
2022-10-20T12:54:42.786Z,12.20
2022-10-20T12:57:29.204Z,12.30
2022-10-20T13:00:00.530Z,12.30
2022-10-20T13:02:35.259Z,12.30
2022-10-20T13:05:25.187Z,12.30
2022-10-20T13:08:35.558Z,12.50
2022-10-20T13:11:44.639Z,12.50
2022-10-20T13:14:37.104Z,12.40
2022-10-20T13:17:17.879Z,12.50
2022-10-20T13:19:50.195Z,12.50
2022-10-20T13:22:39.116Z,12.60
2022-10-20T13:25:17.966Z,12.60
2022-10-20T13:27:48.955Z,12.60
2022-10-20T13:30:23.600Z,12.60
2022-10-20T13:33:33.356Z,12.70
2022-10-20T13:36:01.823Z,12.60
2022-10-20T13:38:38.805Z,12.50
2022-10-20T13:41:17.358Z,12.50
2022-10-20T13:43:57.524Z,12.50
2022-10-20T13:46:39.512Z,12.50
2022-10-20T13:49:23.905Z,12.50
2022-10-20T13:51:56.878Z,12.50
2022-10-20T13:54:28.470Z,12.40
2022-10-20T13:56:58.972Z,12.40
2022-10-20T13:59:29.865Z,12.40
2022-10-20T14:02:00.764Z,12.40
2022-10-20T14:04:32.191Z,12.40
2022-10-20T14:07:04.899Z,12.30
2022-10-20T14:09:33.627Z,12.30
2022-10-20T14:12:07.903Z,12.30
2022-10-20T14:14:36.822Z,12.30
2022-10-20T14:17:07.742Z,12.30
2022-10-20T14:19:36.877Z,12.30
2022-10-20T14:22:17.220Z,12.30
2022-10-20T14:24:48.520Z,12.40
2022-10-20T14:27:21.632Z,12.30
2022-10-20T14:29:51.085Z,12.30
2022-10-20T14:32:23.961Z,12.30
2022-10-20T14:34:58.219Z,12.30
2022-10-20T14:37:31.535Z,12.20
2022-10-20T14:40:02.409Z,12.20
2022-10-20T14:42:34.850Z,12.10
2022-10-20T14:45:05.363Z,12.00
2022-10-20T14:47:41.124Z,11.90
2022-10-20T14:50:22.096Z,11.90
2022-10-20T14:52:54.047Z,11.80
2022-10-20T14:55:33.535Z,11.80
2022-10-20T14:58:03.642Z,11.70
2022-10-20T15:00:36.167Z,11.70
2022-10-20T15:03:08.040Z,11.60
2022-10-20T15:05:42.579Z,11.60
2022-10-20T15:08:23.135Z,11.50
2022-10-20T15:10:51.958Z,11.40
2022-10-20T15:13:28.645Z,11.40
2022-10-20T15:15:58.317Z,11.30
2022-10-20T15:18:28.440Z,11.20
2022-10-20T15:20:57.829Z,11.20
2022-10-20T15:23:28.700Z,11.10
2022-10-20T15:26:01.590Z,11.00
2022-10-20T15:28:38.393Z,11.00
2022-10-20T15:31:17.484Z,10.90
2022-10-20T15:33:46.587Z,10.70
2022-10-20T15:36:16.300Z,10.70
2022-10-20T15:38:45.189Z,10.60
2022-10-20T15:41:15.619Z,10.50
2022-10-20T15:43:45.771Z,10.40
2022-10-20T15:46:15.864Z,10.30
2022-10-20T15:48:45.069Z,10.30
2022-10-20T15:51:17.937Z,10.30
2022-10-20T15:53:49.614Z,10.20
2022-10-20T15:56:18.463Z,10.10
2022-10-20T15:58:50.342Z,10.00
2022-10-20T16:01:20.384Z,9.90
2022-10-20T16:03:50.014Z,9.90
2022-10-20T16:06:22.847Z,9.80
2022-10-20T16:08:54.720Z,9.80
2022-10-20T16:11:23.727Z,9.70
2022-10-20T16:13:53.910Z,9.70
2022-10-20T16:16:22.622Z,9.60
2022-10-20T16:18:51.369Z,9.60
2022-10-20T16:21:20.708Z,9.60
2022-10-20T16:23:49.409Z,9.50
2022-10-20T16:26:18.382Z,9.40
2022-10-20T16:28:47.096Z,9.30
2022-10-20T16:31:18.057Z,9.30
2022-10-20T16:33:47.125Z,9.30
2022-10-20T16:36:19.003Z,9.20
2022-10-20T16:38:51.120Z,9.20
2022-10-20T16:41:20.030Z,9.10
2022-10-20T16:43:48.702Z,9.00
2022-10-20T16:46:18.926Z,8.90
2022-10-20T16:48:48.337Z,8.80
2022-10-20T16:51:18.326Z,8.80
2022-10-20T16:53:47.365Z,8.70
2022-10-20T16:56:19.871Z,8.70
2022-10-20T16:58:49.858Z,8.70
2022-10-20T17:01:21.960Z,8.60
2022-10-20T17:03:52.992Z,8.60
2022-10-20T17:06:24.624Z,8.60
2022-10-20T17:08:54.160Z,8.50
2022-10-20T17:11:25.154Z,8.40
2022-10-20T17:13:54.353Z,8.30
2022-10-20T17:16:28.706Z,8.20
2022-10-20T17:18:58.916Z,8.10
2022-10-20T17:21:28.087Z,8.10
2022-10-20T17:23:57.024Z,8.00
2022-10-20T17:26:27.504Z,8.00
2022-10-20T17:28:56.655Z,8.00
2022-10-20T17:31:28.158Z,8.00
2022-10-20T17:33:58.567Z,7.90
2022-10-20T17:36:28.605Z,7.90
2022-10-20T17:39:00.057Z,7.90
2022-10-20T17:41:28.968Z,7.80
2022-10-20T17:44:00.161Z,7.80
2022-10-20T17:46:31.134Z,7.70
2022-10-20T17:49:01.647Z,7.60
2022-10-20T17:51:34.417Z,7.60
2022-10-20T17:54:04.906Z,7.50
2022-10-20T17:56:36.580Z,7.40
2022-10-20T17:59:07.641Z,7.40
2022-10-20T18:01:39.720Z,7.30
2022-10-20T18:04:13.687Z,7.30
2022-10-20T18:06:43.422Z,7.30
2022-10-20T18:09:13.971Z,7.30
2022-10-20T18:11:45.368Z,7.20
2022-10-20T18:14:14.118Z,7.20
2022-10-20T18:16:45.476Z,7.10
2022-10-20T18:19:16.204Z,7.10
2022-10-20T18:21:45.390Z,7.00
2022-10-20T18:24:15.527Z,7.00
2022-10-20T18:26:44.944Z,6.90
2022-10-20T18:29:15.448Z,6.90
2022-10-20T18:31:47.389Z,6.80
2022-10-20T18:34:20.708Z,6.80
2022-10-20T18:36:50.135Z,6.70
2022-10-20T18:39:19.916Z,6.70
2022-10-20T18:41:52.371Z,6.70
2022-10-20T18:44:21.446Z,6.80
2022-10-20T18:46:57.505Z,6.80
2022-10-20T18:49:26.548Z,6.80
2022-10-20T18:51:55.604Z,6.80
2022-10-20T18:54:24.762Z,6.70
2022-10-20T18:56:54.402Z,6.70
2022-10-20T18:59:23.153Z,6.70
2022-10-20T19:01:53.358Z,6.70
2022-10-20T19:04:22.300Z,6.70
2022-10-20T19:06:52.092Z,6.60
2022-10-20T19:09:22.763Z,6.60
2022-10-20T19:11:52.627Z,6.50
2022-10-20T19:14:22.838Z,6.50
2022-10-20T19:16:53.474Z,6.40
2022-10-20T19:19:22.905Z,6.30
2022-10-20T19:21:51.650Z,6.30
2022-10-20T19:24:22.199Z,6.20
2022-10-20T19:27:02.109Z,6.20
2022-10-20T19:29:37.491Z,6.10
2022-10-20T19:32:10.313Z,6.10
2022-10-20T19:34:41.216Z,6.00
2022-10-20T19:37:11.217Z,6.00
2022-10-20T19:39:42.722Z,6.00
2022-10-20T19:42:12.324Z,5.90
2022-10-20T19:44:41.580Z,5.90
2022-10-20T19:47:12.801Z,5.90
2022-10-20T19:49:41.688Z,5.80
2022-10-20T19:52:10.596Z,5.90
2022-10-20T19:54:39.234Z,5.90
2022-10-20T19:57:10.294Z,5.90
2022-10-20T19:59:39.825Z,5.90
2022-10-20T20:02:09.243Z,5.90
2022-10-20T20:04:40.544Z,5.90
2022-10-20T20:07:09.265Z,5.90
2022-10-20T20:09:38.100Z,6.00
2022-10-20T20:12:06.854Z,6.00
2022-10-20T20:14:35.742Z,6.00
2022-10-20T20:17:07.350Z,6.00
2022-10-20T20:19:40.444Z,6.00
2022-10-20T20:22:09.121Z,6.00
2022-10-20T20:24:38.984Z,6.00
2022-10-20T20:27:07.662Z,6.10
2022-10-20T20:29:36.261Z,6.10
2022-10-20T20:32:05.017Z,6.10
2022-10-20T20:34:33.702Z,6.00
2022-10-20T20:37:03.756Z,6.00
2022-10-20T20:39:32.539Z,6.10
2022-10-20T20:42:01.265Z,6.10
2022-10-20T20:44:29.921Z,6.10
2022-10-20T20:46:58.844Z,6.00
2022-10-20T20:49:27.590Z,6.00
2022-10-20T20:51:56.256Z,6.00
2022-10-20T20:54:28.317Z,6.00
2022-10-20T20:56:59.604Z,6.00
2022-10-20T20:59:28.344Z,6.00
2022-10-20T21:01:56.980Z,6.00
2022-10-20T21:04:28.347Z,6.00
2022-10-20T21:07:03.067Z,6.00
2022-10-20T21:09:33.464Z,6.00
2022-10-20T21:12:02.557Z,6.00
2022-10-20T21:14:31.543Z,6.00
2022-10-20T21:17:00.971Z,6.00
2022-10-20T21:19:29.911Z,6.10
2022-10-20T21:22:01.460Z,6.00
2022-10-20T21:24:30.334Z,6.00
2022-10-20T21:27:00.399Z,6.00
2022-10-20T21:29:29.133Z,6.10
2022-10-20T21:31:58.485Z,6.00
2022-10-20T21:34:27.613Z,6.10
2022-10-20T21:36:56.301Z,6.10
2022-10-20T21:39:24.984Z,6.00
2022-10-20T21:41:53.739Z,6.10
2022-10-20T21:44:23.915Z,6.00
2022-10-20T21:46:53.511Z,6.00
2022-10-20T21:49:25.526Z,5.90
2022-10-20T21:51:56.442Z,6.00
2022-10-20T21:54:26.799Z,5.90
2022-10-20T21:56:56.565Z,5.90
2022-10-20T21:59:27.605Z,5.90
2022-10-20T22:01:57.560Z,5.90
2022-10-20T22:04:27.849Z,5.90
2022-10-20T22:06:57.275Z,5.90
2022-10-20T22:09:25.965Z,5.90
2022-10-20T22:11:56.753Z,5.90
2022-10-20T22:14:27.088Z,5.90
2022-10-20T22:16:56.687Z,5.90
2022-10-20T22:19:26.215Z,6.00
2022-10-20T22:21:55.298Z,6.10
2022-10-20T22:24:24.811Z,6.10
2022-10-20T22:26:53.960Z,6.10
2022-10-20T22:29:23.510Z,6.20
2022-10-20T22:31:53.573Z,6.30
2022-10-20T22:34:22.440Z,6.30
2022-10-20T22:36:51.089Z,6.40
2022-10-20T22:39:19.779Z,6.40
2022-10-20T22:41:48.413Z,6.40
2022-10-20T22:44:17.008Z,6.40
2022-10-20T22:46:45.623Z,6.40
2022-10-20T22:49:15.800Z,6.40
2022-10-20T22:51:44.382Z,6.50
2022-10-20T22:54:13.038Z,6.50
2022-10-20T22:56:41.676Z,6.50
2022-10-20T22:59:11.127Z,6.50
2022-10-20T23:01:39.709Z,6.60
2022-10-20T23:04:08.383Z,6.60
2022-10-20T23:06:38.446Z,6.70
2022-10-20T23:09:07.222Z,6.70
2022-10-20T23:11:36.088Z,6.80
2022-10-20T23:14:04.816Z,6.90
2022-10-20T23:16:33.535Z,6.90
2022-10-20T23:19:02.246Z,7.00
2022-10-20T23:21:30.975Z,7.20
2022-10-20T23:24:00.977Z,7.30
2022-10-20T23:26:29.646Z,7.40
2022-10-20T23:28:58.289Z,7.50
2022-10-20T23:31:26.870Z,7.50
2022-10-20T23:33:57.075Z,7.60
2022-10-20T23:36:26.016Z,7.60
2022-10-20T23:38:54.877Z,7.60
2022-10-20T23:41:24.885Z,7.60
2022-10-20T23:43:53.594Z,7.70
2022-10-20T23:46:22.210Z,7.80
2022-10-20T23:48:50.915Z,7.90
2022-10-20T23:51:19.626Z,8.00
2022-10-20T23:53:48.324Z,8.10
2022-10-20T23:56:16.921Z,8.10
2022-10-20T23:58:47.525Z,8.20
